Time;durP1;ratioP1;P1;durP2;ratioP2;P2;SDS_P1;SDS_P2;PMS_P1;PMS_P2;Temp;Humidity;BMP_temperature;BMP_pressure;BME280_temperature;BME280_humidity;BME280_pressure;Samples;Min_cycle;Max_cycle;Signal;HPM_P1;HPM_P2
2022/11/16 00:00:23;;;;;;;18.65;12.27;;;;;;;;;;5072356;28;20503;-66
2022/11/16 00:02:50;;;;;;;24.83;12.45;;;;;;;;;;5054255;28;20032;-68
2022/11/16 00:05:17;;;;;;;17.42;11.82;;;;;;;;;;5071438;28;20047;-66
2022/11/16 00:07:44;;;;;;;19.08;11.85;;;;;;;;;;5054205;28;20068;-68
2022/11/16 00:10:10;;;;;;;18.52;11.25;;;;;;;;;;5072233;28;20670;-66
2022/11/16 00:12:36;;;;;;;18.65;11.93;;;;;;;;;;5054006;28;20392;-68
2022/11/16 00:15:02;;;;;;;17.50;11.95;;;;;;;;;;5071639;28;20028;-69
2022/11/16 00:17:29;;;;;;;18.38;12.45;;;;;;;;;;5053785;28;20063;-67
2022/11/16 00:19:55;;;;;;;16.90;11.30;;;;;;;;;;5071619;28;20032;-66
2022/11/16 00:22:21;;;;;;;17.67;11.45;;;;;;;;;;5053769;28;20025;-66
2022/11/16 00:24:47;;;;;;;18.52;12.30;;;;;;;;;;5070869;28;20035;-66
2022/11/16 00:27:13;;;;;;;16.88;11.95;;;;;;;;;;5071606;28;20032;-67
2022/11/16 00:29:39;;;;;;;17.40;12.02;;;;;;;;;;5071461;28;20028;-68
2022/11/16 00:32:04;;;;;;;19.52;12.38;;;;;;;;;;5071326;28;20119;-67
2022/11/16 00:34:30;;;;;;;18.85;12.35;;;;;;;;;;5070788;28;20035;-66
2022/11/16 00:36:56;;;;;;;20.08;11.68;;;;;;;;;;5053559;28;20062;-68
2022/11/16 00:39:22;;;;;;;18.30;11.73;;;;;;;;;;5071278;28;20070;-66
2022/11/16 00:41:49;;;;;;;17.15;11.65;;;;;;;;;;5071169;28;20059;-67
2022/11/16 00:44:15;;;;;;;19.15;12.10;;;;;;;;;;5070179;28;20028;-67
2022/11/16 00:46:41;;;;;;;18.65;12.25;;;;;;;;;;5071187;28;20024;-66
2022/11/16 00:49:08;;;;;;;18.27;12.38;;;;;;;;;;5071049;28;20032;-66
2022/11/16 00:51:35;;;;;;;17.00;11.85;;;;;;;;;;5070206;28;20036;-67
2022/11/16 00:54:01;;;;;;;20.38;12.35;;;;;;;;;;5070473;28;20043;-68
2022/11/16 00:56:27;;;;;;;18.30;12.45;;;;;;;;;;5078194;28;20767;-67
2022/11/16 00:58:53;;;;;;;18.13;12.20;;;;;;;;;;5073100;28;20070;-67
2022/11/16 01:01:19;;;;;;;17.95;12.10;;;;;;;;;;5091015;28;20184;-68
2022/11/16 01:03:46;;;;;;;18.25;13.13;;;;;;;;;;5090419;28;20032;-67
2022/11/16 01:06:13;;;;;;;17.63;11.90;;;;;;;;;;5073019;28;20039;-68
2022/11/16 01:08:40;;;;;;;17.63;12.07;;;;;;;;;;5091026;28;20024;-67
2022/11/16 01:13:51;;;;;;;18.85;12.10;;;;;;;;;;5090439;28;20035;-67
2022/11/16 01:16:18;;;;;;;17.38;11.93;;;;;;;;;;5090845;28;20016;-67
2022/11/16 01:18:48;;;;;;;19.98;12.00;;;;;;;;;;5090929;28;20120;-69
2022/11/16 01:21:14;;;;;;;18.50;12.32;;;;;;;;;;5090846;28;20060;-67
2022/11/16 01:23:40;;;;;;;17.42;12.15;;;;;;;;;;5071972;28;20067;-67
2022/11/16 01:26:06;;;;;;;18.67;12.70;;;;;;;;;;5090779;28;20064;-67
2022/11/16 01:28:33;;;;;;;17.88;12.57;;;;;;;;;;5090635;28;20016;-66
2022/11/16 01:30:59;;;;;;;17.60;12.05;;;;;;;;;;5090844;28;20016;-66
2022/11/16 01:33:25;;;;;;;19.27;12.43;;;;;;;;;;5090372;28;20069;-67
2022/11/16 01:35:51;;;;;;;17.55;11.77;;;;;;;;;;5072532;28;20032;-67
2022/11/16 01:38:17;;;;;;;19.20;12.98;;;;;;;;;;5090673;28;20103;-67
2022/11/16 01:40:43;;;;;;;19.90;13.32;;;;;;;;;;5090777;28;20474;-67
2022/11/16 01:43:16;;;;;;;18.83;12.85;;;;;;;;;;5071847;28;20042;-67
2022/11/16 01:45:43;;;;;;;20.95;13.00;;;;;;;;;;5072590;28;20141;-67
2022/11/16 01:48:10;;;;;;;18.48;12.52;;;;;;;;;;5090614;28;20024;-67
2022/11/16 01:50:37;;;;;;;20.20;12.80;;;;;;;;;;5072471;28;20055;-66
2022/11/16 01:53:05;;;;;;;18.85;12.80;;;;;;;;;;5071748;28;20028;-66
2022/11/16 01:55:33;;;;;;;20.73;13.18;;;;;;;;;;5090434;28;20071;-67
2022/11/16 01:57:59;;;;;;;18.70;12.97;;;;;;;;;;5094707;28;20027;-67
2022/11/16 02:00:25;;;;;;;19.73;13.60;;;;;;;;;;5094732;28;20738;-67
2022/11/16 02:02:52;;;;;;;19.67;13.20;;;;;;;;;;5076508;28;20110;-67
2022/11/16 02:05:20;;;;;;;18.52;12.93;;;;;;;;;;5075188;28;20059;-68
2022/11/16 02:10:39;;;;;;;19.13;12.38;;;;;;;;;;5094484;28;20039;-66
2022/11/16 02:13:24;;;;;;;19.33;12.77;;;;;;;;;;5093877;28;20028;-67
2022/11/16 02:16:05;;;;;;;20.25;13.02;;;;;;;;;;5094370;28;20072;-67
2022/11/16 02:18:31;;;;;;;19.25;13.10;;;;;;;;;;5076320;28;20058;-66
2022/11/16 02:21:09;;;;;;;19.40;13.88;;;;;;;;;;5094276;28;20072;-68
2022/11/16 02:23:35;;;;;;;20.08;13.13;;;;;;;;;;5093625;28;20013;-68
2022/11/16 02:26:10;;;;;;;19.83;13.05;;;;;;;;;;5093972;28;20538;-67
2022/11/16 02:28:36;;;;;;;21.58;13.27;;;;;;;;;;5076033;28;20024;-67
2022/11/16 02:31:05;;;;;;;19.42;13.70;;;;;;;;;;5094132;28;20103;-67
2022/11/16 02:33:34;;;;;;;19.77;13.15;;;;;;;;;;5093445;28;20091;-66
2022/11/16 02:36:02;;;;;;;19.25;13.02;;;;;;;;;;5093889;28;20068;-66
2022/11/16 02:38:30;;;;;;;19.73;13.43;;;;;;;;;;5075834;28;20020;-68
2022/11/16 02:41:09;;;;;;;21.23;14.10;;;;;;;;;;5075781;28;20032;-67
2022/11/16 02:43:34;;;;;;;;;;;;;;;;;;5093525;28;20043;-66
2022/11/16 02:46:03;;;;;;;20.95;13.68;;;;;;;;;;5093593;28;19912;-67
2022/11/16 02:48:34;;;;;;;21.58;13.80;;;;;;;;;;5075580;28;20057;-66
2022/11/16 02:51:01;;;;;;;21.50;13.70;;;;;;;;;;5075497;28;20024;-67
2022/11/16 02:53:27;;;;;;;21.38;13.45;;;;;;;;;;5074950;28;20024;-66
2022/11/16 02:55:55;;;;;;;19.58;14.32;;;;;;;;;;5093722;28;20021;-66
2022/11/16 02:58:22;;;;;;;20.17;14.52;;;;;;;;;;5094008;28;20058;-66
2022/11/16 03:01:03;;;;;;;20.15;14.50;;;;;;;;;;5075448;28;20028;-66
2022/11/16 03:03:29;;;;;;;21.08;14.23;;;;;;;;;;5074523;28;20111;-66
2022/11/16 03:06:03;;;;;;;20.33;14.35;;;;;;;;;;5093325;28;20023;-66
2022/11/16 03:08:30;;;;;;;20.08;13.60;;;;;;;;;;5093444;28;20384;-66
2022/11/16 03:13:44;;;;;;;20.30;14.13;;;;;;;;;;5093016;28;20055;-67
2022/11/16 03:16:13;;;;;;;20.35;13.43;;;;;;;;;;5093268;28;20024;-66
2022/11/16 03:18:40;;;;;;;20.90;14.20;;;;;;;;;;5093435;28;20044;-66
2022/11/16 03:21:10;;;;;;;22.10;13.70;;;;;;;;;;5093300;28;20028;-66
2022/11/16 03:23:36;;;;;;;20.35;14.95;;;;;;;;;;5074564;28;20150;-67
2022/11/16 03:26:04;;;;;;;21.35;14.82;;;;;;;;;;5093108;28;20024;-67
2022/11/16 03:28:36;;;;;;;20.93;14.60;;;;;;;;;;5093401;28;20024;-67
2022/11/16 03:31:05;;;;;;;21.83;14.27;;;;;;;;;;5093336;28;20099;-68
2022/11/16 03:33:34;;;;;;;21.73;14.70;;;;;;;;;;5092455;28;20444;-66
2022/11/16 03:36:03;;;;;;;20.50;14.73;;;;;;;;;;5074549;28;20032;-66
2022/11/16 03:38:29;;;;;;;22.63;14.43;;;;;;;;;;5092659;28;20023;-65
2022/11/16 03:40:59;;;;;;;21.98;15.43;;;;;;;;;;5092909;28;20020;-65
2022/11/16 03:43:25;;;;;;;20.00;14.75;;;;;;;;;;5092355;28;20472;-67
2022/11/16 03:45:52;;;;;;;21.02;15.10;;;;;;;;;;5092620;28;20506;-66
2022/11/16 03:48:18;;;;;;;22.85;15.68;;;;;;;;;;5074509;28;20117;-66
2022/11/16 03:50:44;;;;;;;22.98;15.48;;;;;;;;;;5092898;28;20145;-67
2022/11/16 03:53:10;;;;;;;22.17;15.45;;;;;;;;;;5091901;28;20506;-66
2022/11/16 03:55:37;;;;;;;20.98;15.38;;;;;;;;;;5092516;28;20052;-66
2022/11/16 03:58:03;;;;;;;21.80;15.30;;;;;;;;;;5092616;28;20481;-68
2022/11/16 04:00:29;;;;;;;21.25;14.88;;;;;;;;;;5092443;28;20025;-69
2022/11/16 04:02:55;;;;;;;22.73;15.30;;;;;;;;;;5074126;28;20031;-68
2022/11/16 04:24:37;;;;;;;22.40;16.15;;;;;;;;;;5091183;28;20411;-66
2022/11/16 04:29:50;;;;;;;20.88;15.50;;;;;;;;;;5092146;28;20098;-66
2022/11/16 04:37:48;;;;;;;22.20;15.68;;;;;;;;;;5091475;28;20073;-66
2022/11/16 04:40:17;;;;;;;22.52;16.40;;;;;;;;;;5091447;28;20506;-66
2022/11/16 04:42:43;;;;;;;22.52;16.27;;;;;;;;;;5091507;28;20038;-66
2022/11/16 04:47:54;;;;;;;21.60;16.08;;;;;;;;;;5082107;28;20115;-66
2022/11/16 04:50:20;;;;;;;21.10;15.73;;;;;;;;;;5068467;28;20032;-64
2022/11/16 04:52:46;;;;;;;23.80;15.95;;;;;;;;;;5042291;28;20079;-66
2022/11/16 04:55:13;;;;;;;23.60;16.17;;;;;;;;;;5050221;28;20025;-67
2022/11/16 04:57:39;;;;;;;23.55;16.33;;;;;;;;;;5066543;28;20638;-66
2022/11/16 05:00:06;;;;;;;22.60;15.65;;;;;;;;;;5053296;28;20025;-68
2022/11/16 05:02:32;;;;;;;20.92;15.82;;;;;;;;;;5071031;28;20103;-66
2022/11/16 05:04:58;;;;;;;22.95;15.63;;;;;;;;;;5064597;28;20024;-67
2022/11/16 05:07:24;;;;;;;23.80;16.27;;;;;;;;;;5050937;28;20032;-66
2022/11/16 05:09:50;;;;;;;23.70;17.80;;;;;;;;;;5050949;28;20448;-69
2022/11/16 05:12:17;;;;;;;23.05;17.08;;;;;;;;;;5050923;28;20029;-69
2022/11/16 05:14:43;;;;;;;22.33;17.50;;;;;;;;;;5050033;28;20020;-66
2022/11/16 05:17:09;;;;;;;24.63;17.63;;;;;;;;;;5050740;28;20031;-66
2022/11/16 05:22:20;;;;;;;23.33;18.08;;;;;;;;;;5058739;28;20035;-66
2022/11/16 05:24:46;;;;;;;23.45;18.52;;;;;;;;;;5069922;28;20024;-66
2022/11/16 05:27:14;;;;;;;26.45;17.73;;;;;;;;;;5070385;28;20472;-65
2022/11/16 05:29:40;;;;;;;25.08;18.02;;;;;;;;;;5070538;28;20020;-66
2022/11/16 05:32:06;;;;;;;24.20;18.15;;;;;;;;;;5051494;28;20488;-65
2022/11/16 05:37:01;;;;;;;24.73;18.40;;;;;;;;;;5030475;28;20383;-57
2022/11/16 05:39:27;;;;;;;23.55;18.13;;;;;;;;;;5030832;28;20474;-64
2022/11/16 05:41:53;;;;;;;23.23;17.65;;;;;;;;;;5031830;28;20036;-65
2022/11/16 05:44:19;;;;;;;24.45;18.42;;;;;;;;;;5031202;28;20031;-64
2022/11/16 05:46:46;;;;;;;25.98;21.75;;;;;;;;;;5027163;28;20029;-62
2022/11/16 05:49:12;;;;;;;28.33;24.83;;;;;;;;;;5011037;28;20037;-64
2022/11/16 05:51:42;;;;;;;27.95;25.23;;;;;;;;;;5012273;28;20026;-64
2022/11/16 05:54:10;;;;;;;28.23;25.52;;;;;;;;;;5011144;28;20018;-64
2022/11/16 05:56:36;;;;;;;28.33;25.63;;;;;;;;;;4994435;28;20528;-64
2022/11/16 05:59:02;;;;;;;30.10;26.50;;;;;;;;;;5012059;28;20026;-63
2022/11/16 06:01:28;;;;;;;34.53;31.30;;;;;;;;;;4994539;28;20026;-64
2022/11/16 06:03:54;;;;;;;34.58;31.50;;;;;;;;;;5011512;28;20032;-63
2022/11/16 06:06:21;;;;;;;34.83;31.60;;;;;;;;;;4994259;28;20030;-65
2022/11/16 06:08:47;;;;;;;34.42;31.23;;;;;;;;;;4994594;28;20053;-64
2022/11/16 06:11:13;;;;;;;33.22;29.88;;;;;;;;;;5011818;28;20029;-63
2022/11/16 06:13:39;;;;;;;33.58;30.10;;;;;;;;;;5011018;28;20026;-61
2022/11/16 06:16:05;;;;;;;33.88;30.70;;;;;;;;;;5011434;28;20022;-64
2022/11/16 06:18:31;;;;;;;33.30;30.20;;;;;;;;;;5011935;28;20024;-63
2022/11/16 06:20:57;;;;;;;32.33;29.35;;;;;;;;;;4994801;28;20021;-60
2022/11/16 06:23:23;;;;;;;33.72;30.50;;;;;;;;;;5011052;28;20021;-62
2022/11/16 06:25:56;;;;;;;33.83;30.63;;;;;;;;;;5011138;28;20145;-63
2022/11/16 06:28:22;;;;;;;33.55;30.45;;;;;;;;;;5012172;28;20038;-61
2022/11/16 06:30:49;;;;;;;33.50;30.27;;;;;;;;;;5012127;28;20347;-62
2022/11/16 06:33:15;;;;;;;35.13;31.83;;;;;;;;;;5010870;28;20090;-63
2022/11/16 06:35:41;;;;;;;34.63;31.25;;;;;;;;;;5011090;28;20022;-62
2022/11/16 06:38:07;;;;;;;33.55;30.38;;;;;;;;;;5010112;28;20026;-64
2022/11/16 06:40:33;;;;;;;34.05;30.48;;;;;;;;;;5011265;28;20470;-64
2022/11/16 06:42:59;;;;;;;33.47;30.20;;;;;;;;;;5013052;28;20030;-61
2022/11/16 06:45:26;;;;;;;34.22;30.83;;;;;;;;;;4996634;28;20038;-64
2022/11/16 06:47:52;;;;;;;33.25;30.10;;;;;;;;;;5015125;28;20475;-64
2022/11/16 06:50:18;;;;;;;33.30;30.30;;;;;;;;;;4997250;28;20061;-64
2022/11/16 06:52:48;;;;;;;32.25;29.33;;;;;;;;;;4998164;28;20068;-64
2022/11/16 06:55:14;;;;;;;33.58;30.38;;;;;;;;;;5015019;28;20026;-63
2022/11/16 06:57:40;;;;;;;31.65;28.65;;;;;;;;;;4997979;28;20030;-63
2022/11/16 07:00:07;;;;;;;31.92;28.92;;;;;;;;;;5015162;28;20393;-64
2022/11/16 07:02:37;;;;;;;31.67;28.85;;;;;;;;;;5014881;28;20533;-64
2022/11/16 07:05:03;;;;;;;31.77;28.77;;;;;;;;;;5014198;28;20108;-63
2022/11/16 07:07:29;;;;;;;31.15;28.25;;;;;;;;;;4997277;28;20026;-63
2022/11/16 07:09:55;;;;;;;32.95;29.80;;;;;;;;;;4996936;28;20455;-63
2022/11/16 07:12:21;;;;;;;30.98;28.17;;;;;;;;;;5014557;28;20113;-64
2022/11/16 07:14:47;;;;;;;30.48;27.58;;;;;;;;;;4996528;28;20025;-64
2022/11/16 07:17:13;;;;;;;31.60;28.55;;;;;;;;;;5013959;28;20049;-66
2022/11/16 07:19:39;;;;;;;29.50;26.67;;;;;;;;;;5013816;28;20026;-63
2022/11/16 07:22:05;;;;;;;27.73;25.02;;;;;;;;;;5014588;28;20030;-61
2022/11/16 07:24:32;;;;;;;26.58;24.08;;;;;;;;;;4996159;28;20030;-64
2022/11/16 07:26:58;;;;;;;27.52;24.98;;;;;;;;;;5013930;28;20112;-64
2022/11/16 07:29:24;;;;;;;25.90;23.40;;;;;;;;;;5014571;28;20037;-62
2022/11/16 07:31:50;;;;;;;25.40;22.95;;;;;;;;;;5013897;28;20026;-63
2022/11/16 07:34:16;;;;;;;25.48;23.05;;;;;;;;;;4995659;28;20382;-64
2022/11/16 07:36:42;;;;;;;25.23;22.83;;;;;;;;;;5013802;28;20406;-62
2022/11/16 07:39:09;;;;;;;24.58;22.17;;;;;;;;;;5013278;28;20022;-64
2022/11/16 07:41:37;;;;;;;24.67;22.17;;;;;;;;;;5013529;28;20425;-60
2022/11/16 07:44:03;;;;;;;24.13;21.83;;;;;;;;;;5016707;28;20031;-62
2022/11/16 07:46:29;;;;;;;22.90;20.70;;;;;;;;;;5012901;28;20080;-62
2022/11/16 07:48:56;;;;;;;23.17;20.90;;;;;;;;;;5012860;28;21393;-62
2022/11/16 07:51:22;;;;;;;22.88;20.67;;;;;;;;;;5010962;28;20036;-64
2022/11/16 07:53:52;;;;;;;23.08;20.77;;;;;;;;;;5011282;28;20049;-64
2022/11/16 07:56:18;;;;;;;22.42;20.20;;;;;;;;;;5012962;28;20017;-63
2022/11/16 07:58:44;;;;;;;22.75;20.27;;;;;;;;;;5014013;28;20048;-64
2022/11/16 08:01:12;;;;;;;21.83;19.35;;;;;;;;;;5013599;28;20478;-64
2022/11/16 08:03:39;;;;;;;21.30;19.10;;;;;;;;;;5012407;28;20117;-65
2022/11/16 08:06:05;;;;;;;21.75;19.65;;;;;;;;;;5013452;28;20387;-62
2022/11/16 08:08:31;;;;;;;22.27;20.13;;;;;;;;;;5012335;28;20121;-65
2022/11/16 08:11:01;;;;;;;22.25;19.95;;;;;;;;;;5012389;28;20505;-64
2022/11/16 08:13:28;;;;;;;21.27;18.88;;;;;;;;;;5012493;28;20116;-65
2022/11/16 08:15:54;;;;;;;22.17;19.85;;;;;;;;;;5013464;28;20061;-65
2022/11/16 08:18:20;;;;;;;21.58;19.27;;;;;;;;;;5013312;28;20026;-64
2022/11/16 08:20:46;;;;;;;21.88;19.58;;;;;;;;;;5013130;28;20080;-64
2022/11/16 08:23:12;;;;;;;22.02;19.73;;;;;;;;;;5012472;28;20065;-65
2022/11/16 08:25:38;;;;;;;21.25;19.05;;;;;;;;;;5012969;28;20057;-64
2022/11/16 08:28:05;;;;;;;22.88;20.52;;;;;;;;;;5013695;28;20032;-64
2022/11/16 08:30:31;;;;;;;21.13;18.92;;;;;;;;;;5013617;28;20036;-64
2022/11/16 08:32:57;;;;;;;23.75;19.33;;;;;;;;;;5012506;28;20034;-63
2022/11/16 08:35:23;;;;;;;21.90;19.70;;;;;;;;;;5012297;28;20032;-62
2022/11/16 08:37:49;;;;;;;24.02;20.67;;;;;;;;;;5013157;28;20033;-64
2022/11/16 08:40:15;;;;;;;25.35;21.45;;;;;;;;;;5012066;28;20308;-64
2022/11/16 08:42:41;;;;;;;23.35;20.85;;;;;;;;;;5012919;28;20033;-63
2022/11/16 08:45:07;;;;;;;22.63;20.30;;;;;;;;;;5011760;28;20084;-64
2022/11/16 08:47:33;;;;;;;23.13;20.65;;;;;;;;;;5012523;28;20026;-64
2022/11/16 08:49:59;;;;;;;22.13;19.92;;;;;;;;;;5012657;28;20056;-65
2022/11/16 08:52:25;;;;;;;23.63;20.67;;;;;;;;;;5012794;28;20029;-65
2022/11/16 08:54:51;;;;;;;26.65;21.15;;;;;;;;;;5011775;28;20153;-65
2022/11/16 08:57:17;;;;;;;23.38;20.95;;;;;;;;;;5012703;28;20572;-64
2022/11/16 08:59:43;;;;;;;23.17;20.48;;;;;;;;;;5012600;28;20054;-65
2022/11/16 09:02:10;;;;;;;23.00;20.17;;;;;;;;;;4994961;28;20029;-65
2022/11/16 09:04:36;;;;;;;23.27;20.52;;;;;;;;;;5011408;28;20079;-64
2022/11/16 09:07:02;;;;;;;24.20;21.65;;;;;;;;;;5012094;28;20413;-65
2022/11/16 09:09:28;;;;;;;23.02;20.58;;;;;;;;;;4994225;28;20033;-65
2022/11/16 09:11:54;;;;;;;24.30;21.10;;;;;;;;;;5011540;28;20474;-65
2022/11/16 09:14:20;;;;;;;23.27;20.80;;;;;;;;;;5011392;28;20040;-65
2022/11/16 09:16:47;;;;;;;24.98;22.35;;;;;;;;;;4995540;28;20030;-64
2022/11/16 09:19:13;;;;;;;24.42;21.27;;;;;;;;;;4994684;28;20057;-64
2022/11/16 09:21:39;;;;;;;23.85;21.35;;;;;;;;;;5011886;28;20017;-65
2022/11/16 09:24:05;;;;;;;23.98;20.83;;;;;;;;;;5011357;28;20052;-69
2022/11/16 09:26:31;;;;;;;28.17;21.52;;;;;;;;;;5011796;28;20026;-64
2022/11/16 09:29:02;;;;;;;24.15;20.20;;;;;;;;;;4994307;28;20033;-64
2022/11/16 09:31:32;;;;;;;24.55;21.35;;;;;;;;;;4994064;28;20133;-64
2022/11/16 09:33:58;;;;;;;27.13;20.35;;;;;;;;;;5011831;28;20492;-64
2022/11/16 09:36:25;;;;;;;23.80;21.30;;;;;;;;;;5011964;28;20097;-63
2022/11/16 09:38:53;;;;;;;22.83;20.42;;;;;;;;;;4994261;28;20120;-64
2022/11/16 09:41:38;;;;;;;23.50;21.07;;;;;;;;;;4994357;28;20045;-64
2022/11/16 09:44:16;;;;;;;24.35;21.23;;;;;;;;;;5011088;28;20489;-64
2022/11/16 09:46:47;;;;;;;22.35;20.02;;;;;;;;;;5011815;28;20018;-65
2022/11/16 09:49:16;;;;;;;21.85;19.20;;;;;;;;;;5011622;28;20029;-64
2022/11/16 09:51:44;;;;;;;24.48;21.52;;;;;;;;;;4993592;28;20029;-64
2022/11/16 09:54:19;;;;;;;24.35;21.52;;;;;;;;;;4991243;28;20034;-64
2022/11/16 09:56:46;;;;;;;22.60;19.70;;;;;;;;;;5011058;28;20037;-64
2022/11/16 09:59:19;;;;;;;23.25;20.17;;;;;;;;;;5011003;28;20482;-65
2022/11/16 10:01:48;;;;;;;27.65;21.55;;;;;;;;;;5011854;28;20654;-64
2022/11/16 10:04:23;;;;;;;22.13;19.48;;;;;;;;;;5009455;28;20105;-64
2022/11/16 10:06:55;;;;;;;21.75;17.63;;;;;;;;;;5011824;28;20029;-65
2022/11/16 10:09:21;;;;;;;24.55;18.10;;;;;;;;;;5011670;28;20034;-65
2022/11/16 10:11:54;;;;;;;21.52;16.80;;;;;;;;;;5011786;28;20425;-64
2022/11/16 10:14:25;;;;;;;20.73;15.93;;;;;;;;;;5011067;28;20056;-64
2022/11/16 10:16:51;;;;;;;19.95;14.95;;;;;;;;;;4994706;28;20033;-65
2022/11/16 10:19:50;;;;;;;21.80;13.48;;;;;;;;;;4998430;28;20390;-65
2022/11/16 10:22:19;;;;;;;18.23;10.48;;;;;;;;;;4982765;28;20211;-64
2022/11/16 10:24:49;;;;;;;29.23;11.93;;;;;;;;;;4997374;28;20041;-64
2022/11/16 10:27:36;;;;;;;20.35;10.38;;;;;;;;;;4997934;28;20480;-64
2022/11/16 10:30:09;;;;;;;18.48;9.85;;;;;;;;;;4998246;28;20032;-64
2022/11/16 10:32:55;;;;;;;19.95;10.00;;;;;;;;;;4997481;28;20026;-64
2022/11/16 10:35:24;;;;;;;19.20;10.50;;;;;;;;;;4995728;28;20038;-64
2022/11/16 10:37:50;;;;;;;16.42;9.65;;;;;;;;;;5015322;28;20022;-65
2022/11/16 10:40:24;;;;;;;18.00;10.52;;;;;;;;;;5015168;28;20076;-65
2022/11/16 10:42:54;;;;;;;16.83;10.18;;;;;;;;;;4997606;28;20036;-65
2022/11/16 10:45:28;;;;;;;16.25;10.18;;;;;;;;;;4996937;28;20030;-66
2022/11/16 10:48:09;;;;;;;19.80;10.63;;;;;;;;;;4997284;28;20077;-65
2022/11/16 10:50:45;;;;;;;19.60;11.00;;;;;;;;;;4997271;28;20116;-65
2022/11/16 10:53:15;;;;;;;18.63;11.48;;;;;;;;;;4996740;28;20029;-65
2022/11/16 10:55:41;;;;;;;16.95;10.75;;;;;;;;;;4997598;28;20030;-65
2022/11/16 10:58:07;;;;;;;19.52;10.85;;;;;;;;;;5014877;28;20029;-66
2022/11/16 11:00:43;;;;;;;16.75;10.07;;;;;;;;;;4998530;28;20632;-64
2022/11/16 11:03:09;;;;;;;18.75;11.13;;;;;;;;;;5014758;28;20386;-65
2022/11/16 11:05:36;;;;;;;19.65;10.00;;;;;;;;;;4998496;28;20056;-64
2022/11/16 11:08:02;;;;;;;17.92;10.95;;;;;;;;;;5016407;28;20021;-65
2022/11/16 11:10:28;;;;;;;17.92;10.18;;;;;;;;;;5014676;28;20037;-65
2022/11/16 11:13:03;;;;;;;16.27;9.37;;;;;;;;;;4662843;28;9999641;-64
2022/11/16 11:15:29;;;;;;;18.90;9.80;;;;;;;;;;5011200;28;20288;-65
2022/11/16 11:18:14;;;;;;;17.77;9.82;;;;;;;;;;5011349;28;20045;-65
2022/11/16 11:20:41;;;;;;;17.67;10.20;;;;;;;;;;5011388;28;20108;-65
2022/11/16 11:23:13;;;;;;;19.17;9.90;;;;;;;;;;5010798;28;20026;-65
2022/11/16 11:25:41;;;;;;;17.65;10.02;;;;;;;;;;5010502;28;20029;-64
2022/11/16 11:28:26;;;;;;;20.80;9.87;;;;;;;;;;5011598;28;20026;-64
2022/11/16 11:30:55;;;;;;;19.50;9.77;;;;;;;;;;4993447;28;20022;-65
2022/11/16 11:33:22;;;;;;;20.52;10.05;;;;;;;;;;5009772;28;20495;-65
2022/11/16 11:36:05;;;;;;;21.42;9.75;;;;;;;;;;5046910;22;20132;-63
2022/11/16 11:38:32;;;;;;;16.88;9.70;;;;;;;;;;5028850;28;20071;-65
2022/11/16 11:41:03;;;;;;;17.45;10.40;;;;;;;;;;5029301;28;20026;-65
2022/11/16 11:43:32;;;;;;;20.00;11.00;;;;;;;;;;5028772;28;20025;-65
2022/11/16 11:46:06;;;;;;;17.90;11.00;;;;;;;;;;5029329;28;20032;-66
2022/11/16 11:48:51;;;;;;;18.52;10.55;;;;;;;;;;5029169;28;20034;-66
2022/11/16 11:51:23;;;;;;;17.70;11.50;;;;;;;;;;5029938;28;20464;-66
2022/11/16 11:53:57;;;;;;;19.33;11.02;;;;;;;;;;5011507;28;20061;-66
2022/11/16 11:56:23;;;;;;;15.68;10.65;;;;;;;;;;5029708;28;20083;-65
2022/11/16 11:58:50;;;;;;;18.70;11.15;;;;;;;;;;5013320;28;20022;-64
2022/11/16 12:01:34;;;;;;;19.27;10.60;;;;;;;;;;5032274;28;20441;-65
2022/11/16 12:04:10;;;;;;;20.20;10.88;;;;;;;;;;5031807;28;20021;-66
2022/11/16 12:06:48;;;;;;;19.10;10.50;;;;;;;;;;5031337;28;20036;-64
2022/11/16 12:09:21;;;;;;;17.90;10.40;;;;;;;;;;5031762;28;20116;-65
2022/11/16 12:11:55;;;;;;;18.30;10.35;;;;;;;;;;5031502;28;20116;-67
2022/11/16 12:14:27;;;;;;;18.27;10.30;;;;;;;;;;5013168;28;20433;-65
2022/11/16 12:16:56;;;;;;;18.58;10.48;;;;;;;;;;5031194;28;20382;-67
2022/11/16 12:19:28;;;;;;;17.10;10.87;;;;;;;;;;4664700;28;10000580;-65
2022/11/16 12:22:04;;;;;;;17.75;11.27;;;;;;;;;;5028593;28;20025;-65
2022/11/16 12:24:48;;;;;;;19.17;11.50;;;;;;;;;;5027754;28;20064;-65
2022/11/16 12:27:19;;;;;;;18.25;11.05;;;;;;;;;;5010866;28;20029;-64
2022/11/16 12:29:51;;;;;;;18.35;11.30;;;;;;;;;;5028279;28;20036;-66
2022/11/16 12:32:24;;;;;;;18.42;11.90;;;;;;;;;;5009976;28;20041;-65
2022/11/16 12:34:51;;;;;;;16.58;11.40;;;;;;;;;;5027396;28;20149;-64
2022/11/16 12:37:35;;;;;;;20.08;12.10;;;;;;;;;;5028628;28;20044;-65
2022/11/16 12:40:20;;;;;;;19.10;11.50;;;;;;;;;;5009650;28;20041;-66
2022/11/16 12:42:52;;;;;;;19.65;11.77;;;;;;;;;;5010253;28;20486;-66
2022/11/16 12:45:19;;;;;;;19.38;12.13;;;;;;;;;;5027066;28;20053;-66
2022/11/16 12:47:57;;;;;;;19.67;11.57;;;;;;;;;;5028128;28;20529;-66
2022/11/16 12:50:32;;;;;;;17.98;12.00;;;;;;;;;;5027999;28;20060;-66
2022/11/16 12:53:12;;;;;;;16.15;11.50;;;;;;;;;;5009720;28;20041;-67
2022/11/16 12:55:38;;;;;;;17.20;11.73;;;;;;;;;;5026846;28;20072;-66
2022/11/16 12:58:10;;;;;;;17.70;11.20;;;;;;;;;;5027705;28;20120;-66
2022/11/16 13:00:49;;;;;;;18.90;10.82;;;;;;;;;;5027813;28;20557;-66
2022/11/16 13:03:22;;;;;;;18.52;11.52;;;;;;;;;;5029176;28;20473;-66
2022/11/16 13:05:55;;;;;;;19.02;11.10;;;;;;;;;;5029758;28;20073;-66
2022/11/16 13:08:21;;;;;;;16.08;11.38;;;;;;;;;;5030752;28;20025;-66
2022/11/16 13:10:48;;;;;;;18.00;11.85;;;;;;;;;;5030464;28;20026;-67
2022/11/16 13:13:20;;;;;;;20.30;12.20;;;;;;;;;;4677747;28;10000490;-62
2022/11/16 13:15:46;;;;;;;19.63;12.25;;;;;;;;;;5009608;28;20110;-66
2022/11/16 13:18:14;;;;;;;18.63;12.25;;;;;;;;;;5027426;28;20040;-66
2022/11/16 13:20:49;;;;;;;17.23;11.82;;;;;;;;;;5027100;28;20108;-65
2022/11/16 13:23:18;;;;;;;17.92;11.90;;;;;;;;;;5025867;28;20030;-66
2022/11/16 13:26:09;;;;;;;16.67;12.10;;;;;;;;;;5026721;28;20060;-66
2022/11/16 13:28:53;;;;;;;17.00;11.85;;;;;;;;;;5027564;28;20033;-65
2022/11/16 13:31:20;;;;;;;16.05;11.75;;;;;;;;;;5027932;28;20083;-67
2022/11/16 13:33:51;;;;;;;17.35;11.98;;;;;;;;;;5027077;28;20037;-65
2022/11/16 13:36:36;;;;;;;18.05;11.95;;;;;;;;;;5026862;28;20037;-64
2022/11/16 13:39:03;;;;;;;18.23;11.30;;;;;;;;;;5009744;28;20389;-66
2022/11/16 13:41:29;;;;;;;17.77;11.65;;;;;;;;;;5026912;28;20025;-66
2022/11/16 13:43:55;;;;;;;19.75;12.40;;;;;;;;;;5026012;28;20017;-66
2022/11/16 13:46:21;;;;;;;16.70;11.23;;;;;;;;;;5026621;28;20420;-64
2022/11/16 13:48:49;;;;;;;15.82;11.30;;;;;;;;;;5025931;28;20022;-64
2022/11/16 13:51:18;;;;;;;15.65;11.20;;;;;;;;;;5026199;28;20087;-61
2022/11/16 13:53:51;;;;;;;16.58;11.27;;;;;;;;;;5025945;28;20029;-65
2022/11/16 13:56:19;;;;;;;17.48;11.30;;;;;;;;;;5027576;28;20040;-66
2022/11/16 13:58:47;;;;;;;17.50;11.30;;;;;;;;;;5027381;28;20478;-66
2022/11/16 14:01:13;;;;;;;16.55;12.00;;;;;;;;;;5026627;28;20662;-65
2022/11/16 14:04:06;;;;;;;15.98;11.60;;;;;;;;;;5026110;28;20037;-67
2022/11/16 14:06:32;;;;;;;15.20;10.85;;;;;;;;;;4986834;28;20038;-66
2022/11/16 14:08:58;;;;;;;17.30;12.07;;;;;;;;;;5027510;28;20030;-66
2022/11/16 14:11:38;;;;;;;18.35;11.32;;;;;;;;;;5008557;28;20099;-66
2022/11/16 14:14:10;;;;;;;17.65;11.88;;;;;;;;;;5026174;28;20028;-65
2022/11/16 14:16:42;;;;;;;16.58;11.27;;;;;;;;;;5009424;28;20807;-66
2022/11/16 14:19:28;;;;;;;18.77;11.55;;;;;;;;;;5026736;28;20022;-67
2022/11/16 14:22:01;;;;;;;18.23;11.18;;;;;;;;;;5026915;28;20036;-66
2022/11/16 14:24:42;;;;;;;18.38;11.40;;;;;;;;;;5025473;28;20044;-65
2022/11/16 14:27:08;;;;;;;19.15;11.65;;;;;;;;;;5026266;28;20168;-63
2022/11/16 14:29:54;;;;;;;17.48;11.27;;;;;;;;;;5026706;28;20025;-65
2022/11/16 14:32:25;;;;;;;17.25;11.27;;;;;;;;;;5026121;28;20472;-66
2022/11/16 14:34:52;;;;;;;16.75;11.32;;;;;;;;;;5025455;28;20060;-65
2022/11/16 14:37:21;;;;;;;18.35;11.77;;;;;;;;;;5025803;28;20021;-67
2022/11/16 14:39:48;;;;;;;21.88;11.85;;;;;;;;;;5026099;28;20021;-66
2022/11/16 14:42:14;;;;;;;17.13;12.00;;;;;;;;;;5025897;28;20128;-66
2022/11/16 14:44:41;;;;;;;18.13;12.27;;;;;;;;;;5025273;28;20032;-67
2022/11/16 14:47:18;;;;;;;18.23;11.35;;;;;;;;;;5025495;28;20040;-65
2022/11/16 14:49:44;;;;;;;18.80;11.95;;;;;;;;;;5025991;28;20105;-64
2022/11/16 14:52:12;;;;;;;16.40;11.32;;;;;;;;;;5026142;28;20147;-65
2022/11/16 14:54:41;;;;;;;18.45;11.77;;;;;;;;;;5025501;28;20026;-65
2022/11/16 14:57:07;;;;;;;;;;;;;;;;;;5027887;28;20045;-65
2022/11/16 14:59:33;;;;;;;18.50;11.93;;;;;;;;;;5028543;28;20490;-62
2022/11/16 15:02:02;;;;;;;19.80;11.57;;;;;;;;;;5029673;28;20167;-64
2022/11/16 15:04:29;;;;;;;18.35;11.32;;;;;;;;;;5030439;28;20084;-64
2022/11/16 15:07:01;;;;;;;18.08;11.63;;;;;;;;;;5012652;28;20629;-62
2022/11/16 15:09:33;;;;;;;18.23;11.45;;;;;;;;;;4994524;28;20120;-65
2022/11/16 15:14:52;;;;;;;17.58;11.60;;;;;;;;;;5011797;28;20449;-65